sensor_id;sensor_type;location;lat;lon;timestamp;P1;durP1;ratioP1;P2;durP2;ratioP2
35743;SDS011;21867;52.012;4.324;2024-02-28T00:00:48;7.33;;;4.10;;
35743;SDS011;21867;52.012;4.324;2024-02-28T00:03:15;8.63;;;3.53;;
35743;SDS011;21867;52.012;4.324;2024-02-28T00:05:46;3.67;;;3.37;;
35743;SDS011;21867;52.012;4.324;2024-02-28T00:08:13;7.07;;;3.60;;
35743;SDS011;21867;52.012;4.324;2024-02-28T00:10:41;3.80;;;3.47;;
35743;SDS011;21867;52.012;4.324;2024-02-28T00:13:08;6.63;;;3.60;;
35743;SDS011;21867;52.012;4.324;2024-02-28T00:15:50;6.60;;;4.10;;
35743;SDS011;21867;52.012;4.324;2024-02-28T00:21:09;4.70;;;3.80;;
35743;SDS011;21867;52.012;4.324;2024-02-28T00:23:37;6.23;;;3.80;;
35743;SDS011;21867;52.012;4.324;2024-02-28T00:26:04;7.13;;;4.07;;
35743;SDS011;21867;52.012;4.324;2024-02-28T00:28:32;6.50;;;3.27;;
35743;SDS011;21867;52.012;4.324;2024-02-28T00:31:00;4.97;;;3.63;;
35743;SDS011;21867;52.012;4.324;2024-02-28T00:36:38;4.83;;;4.00;;
35743;SDS011;21867;52.012;4.324;2024-02-28T00:39:20;3.63;;;3.33;;
35743;SDS011;21867;52.012;4.324;2024-02-28T00:41:48;5.40;;;3.53;;
35743;SDS011;21867;52.012;4.324;2024-02-28T00:50:38;6.80;;;4.23;;
35743;SDS011;21867;52.012;4.324;2024-02-28T00:53:06;3.80;;;3.50;;
35743;SDS011;21867;52.012;4.324;2024-02-28T00:55:33;4.53;;;4.13;;
35743;SDS011;21867;52.012;4.324;2024-02-28T00:58:00;5.40;;;3.70;;
35743;SDS011;21867;52.012;4.324;2024-02-28T01:00:28;5.33;;;4.03;;
35743;SDS011;21867;52.012;4.324;2024-02-28T01:05:48;4.07;;;3.77;;
35743;SDS011;21867;52.012;4.324;2024-02-28T01:08:15;5.90;;;3.83;;
35743;SDS011;21867;52.012;4.324;2024-02-28T01:10:43;5.60;;;4.03;;
35743;SDS011;21867;52.012;4.324;2024-02-28T01:13:10;5.23;;;4.03;;
35743;SDS011;21867;52.012;4.324;2024-02-28T01:22:40;4.60;;;4.20;;
35743;SDS011;21867;52.012;4.324;2024-02-28T01:25:08;5.77;;;3.80;;
35743;SDS011;21867;52.012;4.324;2024-02-28T01:27:35;7.37;;;4.60;;
35743;SDS011;21867;52.012;4.324;2024-02-28T01:35:39;6.43;;;4.57;;
35743;SDS011;21867;52.012;4.324;2024-02-28T01:38:08;13.30;;;5.27;;
35743;SDS011;21867;52.012;4.324;2024-02-28T01:40:36;8.20;;;4.13;;
35743;SDS011;21867;52.012;4.324;2024-02-28T01:43:03;9.17;;;4.43;;
35743;SDS011;21867;52.012;4.324;2024-02-28T01:45:30;6.10;;;4.47;;
35743;SDS011;21867;52.012;4.324;2024-02-28T01:48:04;8.03;;;4.83;;
35743;SDS011;21867;52.012;4.324;2024-02-28T01:54:07;5.13;;;4.63;;
35743;SDS011;21867;52.012;4.324;2024-02-28T01:56:35;4.97;;;3.73;;
35743;SDS011;21867;52.012;4.324;2024-02-28T01:59:04;5.13;;;4.60;;
35743;SDS011;21867;52.012;4.324;2024-02-28T02:01:31;5.07;;;4.60;;
35743;SDS011;21867;52.012;4.324;2024-02-28T02:07:04;4.43;;;3.93;;
35743;SDS011;21867;52.012;4.324;2024-02-28T02:09:34;5.30;;;4.50;;
35743;SDS011;21867;52.012;4.324;2024-02-28T02:12:01;7.33;;;4.83;;
35743;SDS011;21867;52.012;4.324;2024-02-28T02:14:28;10.43;;;5.17;;
35743;SDS011;21867;52.012;4.324;2024-02-28T02:16:56;5.17;;;4.40;;
35743;SDS011;21867;52.012;4.324;2024-02-28T02:19:23;4.67;;;4.23;;
35743;SDS011;21867;52.012;4.324;2024-02-28T02:21:52;6.57;;;5.00;;
35743;SDS011;21867;52.012;4.324;2024-02-28T02:24:22;7.83;;;5.37;;
35743;SDS011;21867;52.012;4.324;2024-02-28T02:26:54;6.33;;;5.73;;
35743;SDS011;21867;52.012;4.324;2024-02-28T02:32:30;9.17;;;6.27;;
35743;SDS011;21867;52.012;4.324;2024-02-28T02:34:57;7.13;;;5.40;;
35743;SDS011;21867;52.012;4.324;2024-02-28T02:37:25;6.83;;;6.13;;
35743;SDS011;21867;52.012;4.324;2024-02-28T02:39:53;7.73;;;5.33;;
35743;SDS011;21867;52.012;4.324;2024-02-28T02:42:21;6.23;;;5.27;;
35743;SDS011;21867;52.012;4.324;2024-02-28T02:44:48;8.57;;;5.47;;
35743;SDS011;21867;52.012;4.324;2024-02-28T02:49:51;8.53;;;5.03;;
35743;SDS011;21867;52.012;4.324;2024-02-28T02:52:19;11.03;;;5.83;;
35743;SDS011;21867;52.012;4.324;2024-02-28T02:54:47;6.30;;;5.23;;
35743;SDS011;21867;52.012;4.324;2024-02-28T03:02:59;6.67;;;5.63;;
35743;SDS011;21867;52.012;4.324;2024-02-28T03:05:26;10.20;;;5.50;;
35743;SDS011;21867;52.012;4.324;2024-02-28T03:07:54;9.03;;;6.37;;
35743;SDS011;21867;52.012;4.324;2024-02-28T03:10:21;6.63;;;5.10;;
35743;SDS011;21867;52.012;4.324;2024-02-28T03:12:49;5.87;;;5.27;;
35743;SDS011;21867;52.012;4.324;2024-02-28T03:15:16;8.13;;;5.93;;
35743;SDS011;21867;52.012;4.324;2024-02-28T03:20:28;8.00;;;6.40;;
35743;SDS011;21867;52.012;4.324;2024-02-28T03:22:55;6.77;;;6.00;;
35743;SDS011;21867;52.012;4.324;2024-02-28T03:25:23;8.43;;;5.37;;
35743;SDS011;21867;52.012;4.324;2024-02-28T03:34:30;8.87;;;5.80;;
35743;SDS011;21867;52.012;4.324;2024-02-28T03:36:59;9.43;;;6.00;;
35743;SDS011;21867;52.012;4.324;2024-02-28T03:39:26;6.80;;;5.90;;
35743;SDS011;21867;52.012;4.324;2024-02-28T03:41:54;8.37;;;6.40;;
35743;SDS011;21867;52.012;4.324;2024-02-28T03:44:21;7.47;;;5.83;;
35743;SDS011;21867;52.012;4.324;2024-02-28T03:49:37;12.50;;;8.00;;
35743;SDS011;21867;52.012;4.324;2024-02-28T03:52:06;12.80;;;7.10;;
35743;SDS011;21867;52.012;4.324;2024-02-28T03:54:33;11.63;;;7.13;;
35743;SDS011;21867;52.012;4.324;2024-02-28T04:03:48;10.83;;;7.87;;
35743;SDS011;21867;52.012;4.324;2024-02-28T04:06:15;10.03;;;8.10;;
35743;SDS011;21867;52.012;4.324;2024-02-28T04:08:44;8.53;;;7.27;;
35743;SDS011;21867;52.012;4.324;2024-02-28T04:11:11;11.70;;;8.10;;
35743;SDS011;21867;52.012;4.324;2024-02-28T04:13:39;10.37;;;9.37;;
35743;SDS011;21867;52.012;4.324;2024-02-28T04:18:56;12.23;;;8.27;;
35743;SDS011;21867;52.012;4.324;2024-02-28T04:21:24;11.33;;;8.13;;
35743;SDS011;21867;52.012;4.324;2024-02-28T04:23:53;12.90;;;8.60;;
35743;SDS011;21867;52.012;4.324;2024-02-28T04:26:21;10.03;;;8.40;;
35743;SDS011;21867;52.012;4.324;2024-02-28T04:28:48;13.20;;;10.23;;
35743;SDS011;21867;52.012;4.324;2024-02-28T04:31:31;12.63;;;10.10;;
35743;SDS011;21867;52.012;4.324;2024-02-28T04:40:53;12.53;;;9.43;;
35743;SDS011;21867;52.012;4.324;2024-02-28T04:43:20;11.63;;;9.80;;
35743;SDS011;21867;52.012;4.324;2024-02-28T04:48:38;9.73;;;8.83;;
35743;SDS011;21867;52.012;4.324;2024-02-28T04:51:06;16.70;;;9.23;;
35743;SDS011;21867;52.012;4.324;2024-02-28T04:53:33;11.90;;;10.10;;
35743;SDS011;21867;52.012;4.324;2024-02-28T04:56:02;13.93;;;9.90;;
35743;SDS011;21867;52.012;4.324;2024-02-28T04:58:30;11.03;;;9.50;;
35743;SDS011;21867;52.012;4.324;2024-02-28T05:03:47;10.87;;;9.77;;
35743;SDS011;21867;52.012;4.324;2024-02-28T05:06:15;12.30;;;9.03;;
35743;SDS011;21867;52.012;4.324;2024-02-28T05:08:43;15.00;;;10.47;;
35743;SDS011;21867;52.012;4.324;2024-02-28T05:11:11;11.97;;;9.43;;
35743;SDS011;21867;52.012;4.324;2024-02-28T05:17:23;13.27;;;9.47;;
35743;SDS011;21867;52.012;4.324;2024-02-28T05:19:51;15.47;;;10.23;;
35743;SDS011;21867;52.012;4.324;2024-02-28T05:22:18;11.03;;;9.87;;
35743;SDS011;21867;52.012;4.324;2024-02-28T05:24:46;14.10;;;10.03;;
35743;SDS011;21867;52.012;4.324;2024-02-28T05:27:14;10.73;;;9.20;;
35743;SDS011;21867;52.012;4.324;2024-02-28T05:29:42;11.90;;;9.67;;
35743;SDS011;21867;52.012;4.324;2024-02-28T05:32:09;10.93;;;7.03;;
35743;SDS011;21867;52.012;4.324;2024-02-28T05:34:36;11.40;;;10.13;;
35743;SDS011;21867;52.012;4.324;2024-02-28T05:37:04;17.47;;;10.30;;
35743;SDS011;21867;52.012;4.324;2024-02-28T05:39:31;14.13;;;10.60;;
35743;SDS011;21867;52.012;4.324;2024-02-28T05:41:59;9.87;;;8.87;;
35743;SDS011;21867;52.012;4.324;2024-02-28T05:44:27;13.40;;;9.30;;
35743;SDS011;21867;52.012;4.324;2024-02-28T05:50:48;19.50;;;10.87;;
35743;SDS011;21867;52.012;4.324;2024-02-28T05:53:15;17.47;;;10.57;;
35743;SDS011;21867;52.012;4.324;2024-02-28T05:55:43;12.30;;;9.80;;
35743;SDS011;21867;52.012;4.324;2024-02-28T05:58:11;13.00;;;11.37;;
35743;SDS011;21867;52.012;4.324;2024-02-28T06:00:59;14.93;;;10.37;;
35743;SDS011;21867;52.012;4.324;2024-02-28T06:03:27;13.53;;;9.63;;
35743;SDS011;21867;52.012;4.324;2024-02-28T06:05:54;20.13;;;10.40;;
35743;SDS011;21867;52.012;4.324;2024-02-28T06:08:22;15.00;;;10.83;;
35743;SDS011;21867;52.012;4.324;2024-02-28T06:10:49;18.40;;;11.77;;
35743;SDS011;21867;52.012;4.324;2024-02-28T06:13:16;8.33;;;7.57;;
35743;SDS011;21867;52.012;4.324;2024-02-28T06:18:37;16.77;;;10.40;;
35743;SDS011;21867;52.012;4.324;2024-02-28T06:21:05;17.13;;;11.90;;
35743;SDS011;21867;52.012;4.324;2024-02-28T06:23:32;18.03;;;10.80;;
35743;SDS011;21867;52.012;4.324;2024-02-28T06:26:18;14.23;;;11.27;;
35743;SDS011;21867;52.012;4.324;2024-02-28T06:32:15;13.33;;;11.50;;
35743;SDS011;21867;52.012;4.324;2024-02-28T06:34:44;16.03;;;10.97;;
35743;SDS011;21867;52.012;4.324;2024-02-28T06:37:11;18.43;;;10.73;;
35743;SDS011;21867;52.012;4.324;2024-02-28T06:39:39;15.00;;;10.80;;
35743;SDS011;21867;52.012;4.324;2024-02-28T06:42:06;12.50;;;11.10;;
35743;SDS011;21867;52.012;4.324;2024-02-28T06:44:34;12.33;;;10.43;;
35743;SDS011;21867;52.012;4.324;2024-02-28T06:47:01;13.27;;;11.47;;
35743;SDS011;21867;52.012;4.324;2024-02-28T06:49:28;15.63;;;11.00;;
35743;SDS011;21867;52.012;4.324;2024-02-28T06:51:57;15.07;;;10.23;;
35743;SDS011;21867;52.012;4.324;2024-02-28T06:54:24;19.23;;;11.43;;
35743;SDS011;21867;52.012;4.324;2024-02-28T06:59:52;15.37;;;9.23;;
35743;SDS011;21867;52.012;4.324;2024-02-28T07:02:36;17.00;;;11.10;;
35743;SDS011;21867;52.012;4.324;2024-02-28T07:05:04;16.83;;;11.53;;
35743;SDS011;21867;52.012;4.324;2024-02-28T07:07:33;14.27;;;11.00;;
35743;SDS011;21867;52.012;4.324;2024-02-28T07:10:01;14.47;;;10.93;;
35743;SDS011;21867;52.012;4.324;2024-02-28T07:12:29;16.87;;;11.10;;
35743;SDS011;21867;52.012;4.324;2024-02-28T07:14:56;12.27;;;10.00;;
35743;SDS011;21867;52.012;4.324;2024-02-28T07:17:24;14.20;;;10.87;;
35743;SDS011;21867;52.012;4.324;2024-02-28T07:19:51;12.47;;;9.83;;
35743;SDS011;21867;52.012;4.324;2024-02-28T07:22:19;16.10;;;9.87;;
35743;SDS011;21867;52.012;4.324;2024-02-28T07:24:47;13.37;;;9.93;;
35743;SDS011;21867;52.012;4.324;2024-02-28T07:30:12;16.97;;;9.60;;
35743;SDS011;21867;52.012;4.324;2024-02-28T07:32:40;13.10;;;10.73;;
35743;SDS011;21867;52.012;4.324;2024-02-28T07:35:07;14.27;;;9.63;;
35743;SDS011;21867;52.012;4.324;2024-02-28T07:37:35;16.47;;;10.87;;
35743;SDS011;21867;52.012;4.324;2024-02-28T07:40:04;16.43;;;11.50;;
35743;SDS011;21867;52.012;4.324;2024-02-28T07:42:32;14.97;;;10.63;;
35743;SDS011;21867;52.012;4.324;2024-02-28T07:44:59;13.90;;;12.47;;
35743;SDS011;21867;52.012;4.324;2024-02-28T07:47:26;15.30;;;11.93;;
35743;SDS011;21867;52.012;4.324;2024-02-28T07:49:54;15.63;;;12.13;;
35743;SDS011;21867;52.012;4.324;2024-02-28T07:52:21;19.00;;;13.40;;
35743;SDS011;21867;52.012;4.324;2024-02-28T07:54:48;16.47;;;11.73;;
35743;SDS011;21867;52.012;4.324;2024-02-28T07:57:17;14.77;;;12.30;;
35743;SDS011;21867;52.012;4.324;2024-02-28T07:59:44;10.40;;;8.80;;
35743;SDS011;21867;52.012;4.324;2024-02-28T08:02:12;16.97;;;12.40;;
35743;SDS011;21867;52.012;4.324;2024-02-28T08:04:39;18.47;;;13.90;;
35743;SDS011;21867;52.012;4.324;2024-02-28T08:07:07;21.13;;;13.43;;
35743;SDS011;21867;52.012;4.324;2024-02-28T08:09:34;15.07;;;12.77;;
35743;SDS011;21867;52.012;4.324;2024-02-28T08:12:02;15.47;;;12.87;;
35743;SDS011;21867;52.012;4.324;2024-02-28T08:14:30;13.13;;;11.73;;
35743;SDS011;21867;52.012;4.324;2024-02-28T08:16:58;16.90;;;12.57;;
35743;SDS011;21867;52.012;4.324;2024-02-28T08:19:25;19.43;;;12.10;;
35743;SDS011;21867;52.012;4.324;2024-02-28T08:21:52;14.10;;;10.07;;
35743;SDS011;21867;52.012;4.324;2024-02-28T08:24:20;16.43;;;13.53;;
35743;SDS011;21867;52.012;4.324;2024-02-28T08:26:47;13.33;;;11.60;;
35743;SDS011;21867;52.012;4.324;2024-02-28T08:29:15;20.27;;;12.70;;
35743;SDS011;21867;52.012;4.324;2024-02-28T08:31:43;21.60;;;12.50;;
35743;SDS011;21867;52.012;4.324;2024-02-28T08:34:11;22.50;;;13.20;;
35743;SDS011;21867;52.012;4.324;2024-02-28T08:36:39;18.50;;;12.93;;
35743;SDS011;21867;52.012;4.324;2024-02-28T08:39:06;18.67;;;12.30;;
35743;SDS011;21867;52.012;4.324;2024-02-28T08:41:34;21.50;;;11.63;;
35743;SDS011;21867;52.012;4.324;2024-02-28T08:44:01;14.10;;;11.77;;
35743;SDS011;21867;52.012;4.324;2024-02-28T08:46:29;11.33;;;10.17;;
35743;SDS011;21867;52.012;4.324;2024-02-28T08:48:57;19.27;;;13.80;;
35743;SDS011;21867;52.012;4.324;2024-02-28T08:51:25;19.37;;;12.87;;
35743;SDS011;21867;52.012;4.324;2024-02-28T08:53:52;8.87;;;7.97;;
35743;SDS011;21867;52.012;4.324;2024-02-28T08:56:20;8.57;;;7.70;;
35743;SDS011;21867;52.012;4.324;2024-02-28T08:58:47;23.57;;;13.63;;
35743;SDS011;21867;52.012;4.324;2024-02-28T09:01:15;14.93;;;12.33;;
35743;SDS011;21867;52.012;4.324;2024-02-28T09:03:42;18.87;;;11.87;;
35743;SDS011;21867;52.012;4.324;2024-02-28T09:06:11;18.37;;;12.53;;
35743;SDS011;21867;52.012;4.324;2024-02-28T09:08:39;15.60;;;12.60;;
35743;SDS011;21867;52.012;4.324;2024-02-28T09:11:06;14.67;;;11.97;;
35743;SDS011;21867;52.012;4.324;2024-02-28T09:13:34;21.03;;;13.90;;
35743;SDS011;21867;52.012;4.324;2024-02-28T09:16:01;15.50;;;13.80;;
35743;SDS011;21867;52.012;4.324;2024-02-28T09:18:29;17.90;;;14.03;;
35743;SDS011;21867;52.012;4.324;2024-02-28T09:20:56;20.13;;;14.20;;
35743;SDS011;21867;52.012;4.324;2024-02-28T09:23:25;21.10;;;14.57;;
35743;SDS011;21867;52.012;4.324;2024-02-28T09:25:52;20.80;;;14.43;;
35743;SDS011;21867;52.012;4.324;2024-02-28T09:28:20;19.27;;;14.40;;
35743;SDS011;21867;52.012;4.324;2024-02-28T09:30:47;13.63;;;10.83;;
35743;SDS011;21867;52.012;4.324;2024-02-28T09:33:19;22.03;;;15.53;;
35743;SDS011;21867;52.012;4.324;2024-02-28T09:35:47;18.77;;;15.00;;
35743;SDS011;21867;52.012;4.324;2024-02-28T09:38:14;21.17;;;14.43;;
35743;SDS011;21867;52.012;4.324;2024-02-28T09:40:43;20.00;;;14.43;;
35743;SDS011;21867;52.012;4.324;2024-02-28T09:43:15;21.90;;;16.20;;
35743;SDS011;21867;52.012;4.324;2024-02-28T09:45:42;22.40;;;15.73;;
35743;SDS011;21867;52.012;4.324;2024-02-28T09:48:14;22.23;;;16.27;;
35743;SDS011;21867;52.012;4.324;2024-02-28T09:50:42;22.03;;;17.63;;
35743;SDS011;21867;52.012;4.324;2024-02-28T09:53:10;27.17;;;17.63;;
35743;SDS011;21867;52.012;4.324;2024-02-28T09:55:37;18.47;;;14.50;;
35743;SDS011;21867;52.012;4.324;2024-02-28T09:58:06;25.63;;;17.70;;
35743;SDS011;21867;52.012;4.324;2024-02-28T10:00:35;17.37;;;13.97;;
35743;SDS011;21867;52.012;4.324;2024-02-28T10:03:03;16.07;;;11.87;;
35743;SDS011;21867;52.012;4.324;2024-02-28T10:05:31;19.80;;;16.77;;
35743;SDS011;21867;52.012;4.324;2024-02-28T10:08:00;16.60;;;14.17;;
35743;SDS011;21867;52.012;4.324;2024-02-28T10:10:28;25.47;;;17.27;;
35743;SDS011;21867;52.012;4.324;2024-02-28T10:12:55;26.70;;;17.10;;
35743;SDS011;21867;52.012;4.324;2024-02-28T10:18:12;27.67;;;16.67;;
35743;SDS011;21867;52.012;4.324;2024-02-28T10:23:29;17.27;;;13.07;;
35743;SDS011;21867;52.012;4.324;2024-02-28T10:25:56;27.10;;;18.03;;
35743;SDS011;21867;52.012;4.324;2024-02-28T10:28:24;23.00;;;17.83;;
35743;SDS011;21867;52.012;4.324;2024-02-28T10:38:03;22.30;;;17.90;;
35743;SDS011;21867;52.012;4.324;2024-02-28T10:40:31;16.27;;;14.43;;
35743;SDS011;21867;52.012;4.324;2024-02-28T10:42:58;23.73;;;15.93;;
35743;SDS011;21867;52.012;4.324;2024-02-28T10:45:45;19.30;;;17.00;;
35743;SDS011;21867;52.012;4.324;2024-02-28T10:48:33;19.87;;;15.20;;
35743;SDS011;21867;52.012;4.324;2024-02-28T10:51:00;17.33;;;12.30;;
35743;SDS011;21867;52.012;4.324;2024-02-28T10:53:31;21.67;;;17.60;;
35743;SDS011;21867;52.012;4.324;2024-02-28T10:56:02;22.87;;;17.07;;
35743;SDS011;21867;52.012;4.324;2024-02-28T10:58:30;14.93;;;13.47;;
35743;SDS011;21867;52.012;4.324;2024-02-28T11:06:32;19.33;;;16.37;;
35743;SDS011;21867;52.012;4.324;2024-02-28T11:09:01;22.37;;;17.70;;
35743;SDS011;21867;52.012;4.324;2024-02-28T11:17:54;21.20;;;17.30;;
35743;SDS011;21867;52.012;4.324;2024-02-28T11:20:22;22.17;;;15.47;;
35743;SDS011;21867;52.012;4.324;2024-02-28T11:22:56;25.40;;;16.93;;
35743;SDS011;21867;52.012;4.324;2024-02-28T11:25:25;25.67;;;16.23;;
35743;SDS011;21867;52.012;4.324;2024-02-28T11:27:52;25.40;;;18.87;;
35743;SDS011;21867;52.012;4.324;2024-02-28T11:30:29;25.43;;;19.03;;
35743;SDS011;21867;52.012;4.324;2024-02-28T11:32:57;30.37;;;20.77;;
35743;SDS011;21867;52.012;4.324;2024-02-28T11:35:31;28.47;;;20.77;;
35743;SDS011;21867;52.012;4.324;2024-02-28T11:37:58;23.40;;;18.33;;
35743;SDS011;21867;52.012;4.324;2024-02-28T11:46:53;27.93;;;19.90;;
35743;SDS011;21867;52.012;4.324;2024-02-28T11:49:21;27.27;;;20.83;;
35743;SDS011;21867;52.012;4.324;2024-02-28T11:51:48;34.37;;;21.47;;
35743;SDS011;21867;52.012;4.324;2024-02-28T11:54:16;34.33;;;21.90;;
35743;SDS011;21867;52.012;4.324;2024-02-28T11:56:43;33.87;;;22.47;;
35743;SDS011;21867;52.012;4.324;2024-02-28T11:59:11;32.20;;;24.23;;
35743;SDS011;21867;52.012;4.324;2024-02-28T12:01:41;31.43;;;23.27;;
35743;SDS011;21867;52.012;4.324;2024-02-28T12:04:10;31.50;;;23.30;;
35743;SDS011;21867;52.012;4.324;2024-02-28T12:06:38;35.43;;;23.60;;
35743;SDS011;21867;52.012;4.324;2024-02-28T12:09:06;39.03;;;26.83;;
35743;SDS011;21867;52.012;4.324;2024-02-28T12:11:34;36.73;;;25.47;;
35743;SDS011;21867;52.012;4.324;2024-02-28T12:14:02;28.97;;;20.70;;
35743;SDS011;21867;52.012;4.324;2024-02-28T12:22:24;32.40;;;21.63;;
35743;SDS011;21867;52.012;4.324;2024-02-28T12:24:52;28.67;;;20.00;;
35743;SDS011;21867;52.012;4.324;2024-02-28T12:27:19;25.13;;;19.27;;
35743;SDS011;21867;52.012;4.324;2024-02-28T12:29:47;21.53;;;16.23;;
35743;SDS011;21867;52.012;4.324;2024-02-28T12:32:14;20.63;;;16.63;;
35743;SDS011;21867;52.012;4.324;2024-02-28T12:37:32;22.70;;;16.73;;
35743;SDS011;21867;52.012;4.324;2024-02-28T12:40:00;19.47;;;15.93;;
35743;SDS011;21867;52.012;4.324;2024-02-28T12:42:29;22.30;;;16.40;;
35743;SDS011;21867;52.012;4.324;2024-02-28T12:44:57;25.37;;;18.63;;
35743;SDS011;21867;52.012;4.324;2024-02-28T12:47:25;21.03;;;18.17;;
35743;SDS011;21867;52.012;4.324;2024-02-28T12:55:52;22.50;;;17.43;;
35743;SDS011;21867;52.012;4.324;2024-02-28T12:58:19;23.40;;;18.23;;
35743;SDS011;21867;52.012;4.324;2024-02-28T13:00:47;22.03;;;18.50;;
35743;SDS011;21867;52.012;4.324;2024-02-28T13:03:14;22.30;;;18.60;;
35743;SDS011;21867;52.012;4.324;2024-02-28T13:05:41;24.93;;;17.97;;
35743;SDS011;21867;52.012;4.324;2024-02-28T13:08:09;23.07;;;17.23;;
35743;SDS011;21867;52.012;4.324;2024-02-28T13:10:37;22.53;;;17.77;;
35743;SDS011;21867;52.012;4.324;2024-02-28T13:13:05;19.73;;;17.13;;
35743;SDS011;21867;52.012;4.324;2024-02-28T13:15:33;26.83;;;16.80;;
35743;SDS011;21867;52.012;4.324;2024-02-28T13:18:00;25.33;;;18.33;;
35743;SDS011;21867;52.012;4.324;2024-02-28T13:26:29;25.90;;;16.70;;
35743;SDS011;21867;52.012;4.324;2024-02-28T13:28:58;24.47;;;17.63;;
35743;SDS011;21867;52.012;4.324;2024-02-28T13:31:25;19.67;;;13.33;;
35743;SDS011;21867;52.012;4.324;2024-02-28T13:33:53;24.47;;;20.70;;
35743;SDS011;21867;52.012;4.324;2024-02-28T13:37:24;24.77;;;19.73;;
35743;SDS011;21867;52.012;4.324;2024-02-28T13:40:07;24.87;;;19.77;;
35743;SDS011;21867;52.012;4.324;2024-02-28T13:42:36;28.07;;;19.93;;
35743;SDS011;21867;52.012;4.324;2024-02-28T13:45:06;26.67;;;21.23;;
35743;SDS011;21867;52.012;4.324;2024-02-28T13:47:34;29.60;;;18.60;;
35743;SDS011;21867;52.012;4.324;2024-02-28T13:53:55;24.90;;;20.77;;
35743;SDS011;21867;52.012;4.324;2024-02-28T13:56:22;24.07;;;21.50;;
35743;SDS011;21867;52.012;4.324;2024-02-28T13:58:50;20.80;;;14.97;;
35743;SDS011;21867;52.012;4.324;2024-02-28T14:01:21;24.13;;;19.20;;
35743;SDS011;21867;52.012;4.324;2024-02-28T14:03:48;28.00;;;20.97;;
35743;SDS011;21867;52.012;4.324;2024-02-28T14:06:16;22.67;;;18.50;;
35743;SDS011;21867;52.012;4.324;2024-02-28T14:09:01;28.47;;;21.90;;
35743;SDS011;21867;52.012;4.324;2024-02-28T14:11:29;27.17;;;22.60;;
35743;SDS011;21867;52.012;4.324;2024-02-28T14:13:57;30.23;;;23.57;;
35743;SDS011;21867;52.012;4.324;2024-02-28T14:16:26;26.90;;;22.27;;
35743;SDS011;21867;52.012;4.324;2024-02-28T14:19:08;27.00;;;24.23;;
35743;SDS011;21867;52.012;4.324;2024-02-28T14:27:23;23.23;;;19.17;;
35743;SDS011;21867;52.012;4.324;2024-02-28T14:29:50;23.37;;;20.77;;
35743;SDS011;21867;52.012;4.324;2024-02-28T14:32:19;23.83;;;21.30;;
35743;SDS011;21867;52.012;4.324;2024-02-28T14:34:46;23.17;;;20.70;;
35743;SDS011;21867;52.012;4.324;2024-02-28T14:37:14;22.07;;;19.03;;
35743;SDS011;21867;52.012;4.324;2024-02-28T14:39:57;19.10;;;16.13;;
35743;SDS011;21867;52.012;4.324;2024-02-28T14:42:24;18.77;;;16.67;;
35743;SDS011;21867;52.012;4.324;2024-02-28T14:44:51;18.93;;;16.20;;
35743;SDS011;21867;52.012;4.324;2024-02-28T14:47:21;18.20;;;15.97;;
35743;SDS011;21867;52.012;4.324;2024-02-28T14:56:22;19.87;;;16.83;;
35743;SDS011;21867;52.012;4.324;2024-02-28T14:58:49;17.20;;;14.97;;
35743;SDS011;21867;52.012;4.324;2024-02-28T15:01:16;16.57;;;14.87;;
35743;SDS011;21867;52.012;4.324;2024-02-28T15:03:45;18.17;;;16.33;;
35743;SDS011;21867;52.012;4.324;2024-02-28T15:06:13;19.20;;;17.20;;
35743;SDS011;21867;52.012;4.324;2024-02-28T15:08:46;20.37;;;17.30;;
35743;SDS011;21867;52.012;4.324;2024-02-28T15:11:14;18.03;;;15.80;;
35743;SDS011;21867;52.012;4.324;2024-02-28T15:13:41;17.90;;;16.10;;
35743;SDS011;21867;52.012;4.324;2024-02-28T15:16:09;18.03;;;15.87;;
35743;SDS011;21867;52.012;4.324;2024-02-28T15:18:42;18.93;;;16.20;;
35743;SDS011;21867;52.012;4.324;2024-02-28T15:24:08;17.80;;;15.57;;
35743;SDS011;21867;52.012;4.324;2024-02-28T15:26:35;16.40;;;14.73;;
35743;SDS011;21867;52.012;4.324;2024-02-28T15:29:12;19.47;;;17.47;;
35743;SDS011;21867;52.012;4.324;2024-02-28T15:31:39;19.17;;;17.13;;
35743;SDS011;21867;52.012;4.324;2024-02-28T15:34:06;18.43;;;16.60;;
35743;SDS011;21867;52.012;4.324;2024-02-28T15:36:34;18.73;;;16.40;;
35743;SDS011;21867;52.012;4.324;2024-02-28T15:39:02;19.33;;;17.40;;
35743;SDS011;21867;52.012;4.324;2024-02-28T15:41:31;18.10;;;16.20;;
35743;SDS011;21867;52.012;4.324;2024-02-28T15:44:07;13.90;;;12.50;;
35743;SDS011;21867;52.012;4.324;2024-02-28T15:46:34;17.83;;;13.77;;
35743;SDS011;21867;52.012;4.324;2024-02-28T15:49:02;16.70;;;15.00;;
35743;SDS011;21867;52.012;4.324;2024-02-28T15:51:29;15.80;;;14.20;;
35743;SDS011;21867;52.012;4.324;2024-02-28T15:54:15;17.20;;;14.37;;
35743;SDS011;21867;52.012;4.324;2024-02-28T15:56:44;15.10;;;13.60;;
35743;SDS011;21867;52.012;4.324;2024-02-28T15:59:12;16.17;;;14.47;;
35743;SDS011;21867;52.012;4.324;2024-02-28T16:01:39;13.17;;;11.80;;
35743;SDS011;21867;52.012;4.324;2024-02-28T16:04:07;13.80;;;12.43;;
35743;SDS011;21867;52.012;4.324;2024-02-28T16:06:34;16.07;;;13.70;;
35743;SDS011;21867;52.012;4.324;2024-02-28T16:09:05;14.77;;;11.97;;
35743;SDS011;21867;52.012;4.324;2024-02-28T16:11:33;12.53;;;11.00;;
35743;SDS011;21867;52.012;4.324;2024-02-28T16:14:03;12.73;;;11.27;;
35743;SDS011;21867;52.012;4.324;2024-02-28T16:16:30;15.60;;;11.17;;
35743;SDS011;21867;52.012;4.324;2024-02-28T16:18:57;12.83;;;11.50;;
35743;SDS011;21867;52.012;4.324;2024-02-28T16:21:25;12.33;;;11.07;;
35743;SDS011;21867;52.012;4.324;2024-02-28T16:24:05;11.77;;;10.60;;
35743;SDS011;21867;52.012;4.324;2024-02-28T16:29:42;10.93;;;9.93;;
35743;SDS011;21867;52.012;4.324;2024-02-28T16:32:09;11.80;;;10.60;;
35743;SDS011;21867;52.012;4.324;2024-02-28T16:34:37;10.93;;;9.67;;
35743;SDS011;21867;52.012;4.324;2024-02-28T16:37:04;13.53;;;10.10;;
35743;SDS011;21867;52.012;4.324;2024-02-28T16:39:32;10.10;;;9.10;;
35743;SDS011;21867;52.012;4.324;2024-02-28T16:41:59;12.03;;;10.73;;
35743;SDS011;21867;52.012;4.324;2024-02-28T16:44:27;11.50;;;10.17;;
35743;SDS011;21867;52.012;4.324;2024-02-28T16:46:56;11.63;;;10.50;;
35743;SDS011;21867;52.012;4.324;2024-02-28T16:49:23;10.60;;;9.50;;
35743;SDS011;21867;52.012;4.324;2024-02-28T16:51:51;10.47;;;9.37;;
35743;SDS011;21867;52.012;4.324;2024-02-28T16:59:56;8.97;;;7.83;;
35743;SDS011;21867;52.012;4.324;2024-02-28T17:02:25;8.93;;;7.27;;
35743;SDS011;21867;52.012;4.324;2024-02-28T17:04:52;9.60;;;8.10;;
35743;SDS011;21867;52.012;4.324;2024-02-28T17:07:20;10.70;;;7.57;;
35743;SDS011;21867;52.012;4.324;2024-02-28T17:09:57;7.10;;;6.40;;
35743;SDS011;21867;52.012;4.324;2024-02-28T17:12:24;12.23;;;7.63;;
35743;SDS011;21867;52.012;4.324;2024-02-28T17:14:52;10.00;;;7.03;;
35743;SDS011;21867;52.012;4.324;2024-02-28T17:17:19;9.67;;;6.90;;
35743;SDS011;21867;52.012;4.324;2024-02-28T17:19:48;8.33;;;6.93;;
35743;SDS011;21867;52.012;4.324;2024-02-28T17:26:09;11.03;;;7.50;;
35743;SDS011;21867;52.012;4.324;2024-02-28T17:28:37;8.97;;;7.23;;
35743;SDS011;21867;52.012;4.324;2024-02-28T17:31:04;9.13;;;6.97;;
35743;SDS011;21867;52.012;4.324;2024-02-28T17:33:32;9.43;;;7.50;;
35743;SDS011;21867;52.012;4.324;2024-02-28T17:36:01;9.50;;;6.83;;
35743;SDS011;21867;52.012;4.324;2024-02-28T17:38:29;10.37;;;6.70;;
35743;SDS011;21867;52.012;4.324;2024-02-28T17:40:56;6.70;;;6.10;;